Time;durP1;ratioP1;P1;durP2;ratioP2;P2;SDS_P1;SDS_P2;PMS_P1;PMS_P2;Temp;Humidity;BMP_temperature;BMP_pressure;BME280_temperature;BME280_humidity;BME280_pressure;Samples;Min_cycle;Max_cycle;Signal;HPM_P1;HPM_P2
2022/07/22 00:01:10;;;;;;;421.23;233.10;;;;;;;;;;5005005;28;20563;-72
2022/07/22 00:03:36;;;;;;;407.83;228.40;;;;;;;;;;5022739;28;20194;-73
2022/07/22 00:06:01;;;;;;;416.40;231.63;;;;;;;;;;5002544;28;20186;-72
2022/07/22 00:08:27;;;;;;;377.40;211.57;;;;;;;;;;5006791;28;20698;-73
2022/07/22 00:10:53;;;;;;;410.27;231.48;;;;;;;;;;5006162;28;20220;-73
2022/07/22 00:13:19;;;;;;;418.20;227.50;;;;;;;;;;5004237;28;20701;-73
2022/07/22 00:15:45;;;;;;;396.13;220.40;;;;;;;;;;5011382;28;20613;-74
2022/07/22 00:18:11;;;;;;;384.63;213.93;;;;;;;;;;5011600;28;20184;-72
2022/07/22 00:20:37;;;;;;;343.10;196.98;;;;;;;;;;5014493;28;20221;-73
2022/07/22 00:23:03;;;;;;;362.25;201.75;;;;;;;;;;5011541;28;20223;-74
2022/07/22 00:25:29;;;;;;;377.88;212.98;;;;;;;;;;5008147;28;20739;-73
2022/07/22 00:27:55;;;;;;;435.25;238.82;;;;;;;;;;5004848;28;20609;-73
2022/07/22 00:30:21;;;;;;;393.15;214.40;;;;;;;;;;5007263;28;20186;-73
2022/07/22 00:32:47;;;;;;;397.83;218.57;;;;;;;;;;5004620;28;20275;-73
2022/07/22 00:35:13;;;;;;;393.33;208.70;;;;;;;;;;5004294;28;20670;-73
2022/07/22 00:37:39;;;;;;;366.73;201.93;;;;;;;;;;5006090;28;20232;-73
2022/07/22 00:40:05;;;;;;;353.85;196.02;;;;;;;;;;5007338;28;20575;-73
2022/07/22 00:42:31;;;;;;;372.10;205.73;;;;;;;;;;5006904;28;20184;-73
2022/07/22 00:44:57;;;;;;;392.65;215.80;;;;;;;;;;5009873;28;20542;-73
2022/07/22 00:47:24;;;;;;;367.15;203.60;;;;;;;;;;5001411;28;20237;-72
2022/07/22 00:49:50;;;;;;;402.70;220.95;;;;;;;;;;5001897;28;20220;-73
2022/07/22 00:52:16;;;;;;;379.55;206.30;;;;;;;;;;4999918;28;20571;-73
2022/07/22 00:54:42;;;;;;;348.38;195.23;;;;;;;;;;5001981;28;20196;-73
2022/07/22 00:57:07;;;;;;;365.05;201.18;;;;;;;;;;5003030;28;20181;-73
2022/07/22 00:59:34;;;;;;;373.45;206.27;;;;;;;;;;5001699;28;20232;-73
2022/07/22 01:02:00;;;;;;;408.27;220.45;;;;;;;;;;5000182;28;20213;-72
2022/07/22 01:04:26;;;;;;;389.25;210.55;;;;;;;;;;5003825;28;20563;-73
2022/07/22 01:06:52;;;;;;;401.45;217.73;;;;;;;;;;4998403;28;20231;-74
2022/07/22 01:09:18;;;;;;;358.48;193.45;;;;;;;;;;5006177;28;20185;-73
2022/07/22 01:11:44;;;;;;;388.67;208.73;;;;;;;;;;5001707;28;20706;-73
2022/07/22 01:14:10;;;;;;;363.20;192.43;;;;;;;;;;4993140;28;20227;-73
2022/07/22 01:16:36;;;;;;;390.15;206.93;;;;;;;;;;5001587;28;20578;-73
2022/07/22 01:19:02;;;;;;;380.42;204.60;;;;;;;;;;4999463;28;20655;-72
2022/07/22 01:21:28;;;;;;;367.50;201.10;;;;;;;;;;5004499;28;20575;-73
2022/07/22 01:23:54;;;;;;;375.60;204.75;;;;;;;;;;4999627;28;20181;-73
2022/07/22 01:26:20;;;;;;;375.90;203.23;;;;;;;;;;4998446;28;20235;-73
2022/07/22 01:28:46;;;;;;;372.23;200.20;;;;;;;;;;4999314;28;20224;-73
2022/07/22 01:31:12;;;;;;;386.13;205.25;;;;;;;;;;5005073;28;20228;-72
2022/07/22 01:33:38;;;;;;;376.95;200.45;;;;;;;;;;5004201;28;20740;-74
2022/07/22 01:36:04;;;;;;;329.85;179.77;;;;;;;;;;5008224;28;20185;-73
2022/07/22 01:38:30;;;;;;;365.20;199.00;;;;;;;;;;5005555;28;20536;-73
2022/07/22 01:40:56;;;;;;;415.15;222.45;;;;;;;;;;5001415;28;20283;-73
2022/07/22 01:43:22;;;;;;;353.45;187.57;;;;;;;;;;5006783;28;20232;-73
2022/07/22 01:45:49;;;;;;;387.65;210.32;;;;;;;;;;4996934;28;20208;-73
2022/07/22 01:48:16;;;;;;;381.63;204.82;;;;;;;;;;4998711;28;20181;-72
2022/07/22 01:50:42;;;;;;;398.08;213.15;;;;;;;;;;4999477;28;20805;-73
2022/07/22 01:53:08;;;;;;;356.60;195.02;;;;;;;;;;5000033;28;20232;-72
2022/07/22 01:55:34;;;;;;;434.67;230.70;;;;;;;;;;5002586;28;20252;-72
2022/07/22 01:58:00;;;;;;;372.50;204.32;;;;;;;;;;4999997;28;20229;-73
2022/07/22 02:00:26;;;;;;;347.15;190.63;;;;;;;;;;5000763;28;20232;-73
2022/07/22 02:02:52;;;;;;;411.45;217.30;;;;;;;;;;5005527;28;20213;-74
2022/07/22 02:05:18;;;;;;;358.65;193.70;;;;;;;;;;5003492;28;20225;-74
2022/07/22 02:07:44;;;;;;;396.70;212.65;;;;;;;;;;4995657;28;20216;-73
2022/07/22 02:10:10;;;;;;;352.08;187.95;;;;;;;;;;5004335;28;20225;-72
2022/07/22 02:12:36;;;;;;;399.65;211.20;;;;;;;;;;5001256;28;20185;-73
2022/07/22 02:15:02;;;;;;;383.00;208.02;;;;;;;;;;5004980;28;20181;-73
2022/07/22 02:17:28;;;;;;;379.63;197.23;;;;;;;;;;5003994;28;20224;-73
2022/07/22 02:19:54;;;;;;;399.85;217.63;;;;;;;;;;5004551;28;20322;-73
2022/07/22 02:22:20;;;;;;;371.45;193.95;;;;;;;;;;5004429;28;20287;-73
2022/07/22 02:24:46;;;;;;;369.17;201.55;;;;;;;;;;5002475;28;20806;-73
2022/07/22 02:27:12;;;;;;;380.65;199.45;;;;;;;;;;5003572;28;20610;-73
2022/07/22 02:29:38;;;;;;;356.35;193.63;;;;;;;;;;5003924;28;20247;-73
2022/07/22 02:32:04;;;;;;;365.48;191.38;;;;;;;;;;5003189;28;20229;-73
2022/07/22 02:34:30;;;;;;;336.67;180.55;;;;;;;;;;5004646;28;20223;-72
2022/07/22 02:36:56;;;;;;;418.15;223.43;;;;;;;;;;5002830;28;20220;-72
2022/07/22 02:39:22;;;;;;;409.40;214.02;;;;;;;;;;5003277;28;20291;-76
2022/07/22 02:41:48;;;;;;;394.27;212.75;;;;;;;;;;5002910;28;20208;-77
2022/07/22 02:44:14;;;;;;;381.58;195.25;;;;;;;;;;5002478;28;20225;-79
2022/07/22 02:46:40;;;;;;;347.95;185.32;;;;;;;;;;5005705;28;20221;-76
2022/07/22 02:49:06;;;;;;;348.23;181.18;;;;;;;;;;5002532;28;20228;-75
2022/07/22 02:51:32;;;;;;;368.75;195.88;;;;;;;;;;5002322;28;20268;-75
2022/07/22 02:53:58;;;;;;;397.17;213.40;;;;;;;;;;5003430;28;20263;-74
2022/07/22 02:56:24;;;;;;;355.15;189.95;;;;;;;;;;5005411;28;20213;-75
2022/07/22 02:58:52;;;;;;;376.27;205.40;;;;;;;;;;5003719;28;20927;-75
2022/07/22 03:01:18;;;;;;;406.80;206.43;;;;;;;;;;5006201;28;20283;-77
2022/07/22 03:03:44;;;;;;;357.70;194.60;;;;;;;;;;5004008;28;20221;-75
2022/07/22 03:06:10;;;;;;;345.83;185.50;;;;;;;;;;5004776;28;20473;-75
2022/07/22 03:08:37;;;;;;;437.70;224.80;;;;;;;;;;5001724;28;20216;-78
2022/07/22 03:11:03;;;;;;;416.70;213.07;;;;;;;;;;5003792;28;20578;-75
2022/07/22 03:13:29;;;;;;;367.38;196.63;;;;;;;;;;5017880;28;20213;-75
2022/07/22 03:15:55;;;;;;;393.05;211.65;;;;;;;;;;4999865;28;20228;-74
2022/07/22 03:18:21;;;;;;;386.13;200.75;;;;;;;;;;5003147;28;20177;-74
2022/07/22 03:20:47;;;;;;;402.67;209.68;;;;;;;;;;5003588;28;23636;-74
2022/07/22 03:23:13;;;;;;;378.13;200.00;;;;;;;;;;5001804;28;20630;-79
2022/07/22 03:25:39;;;;;;;435.45;230.57;;;;;;;;;;5001785;28;20221;-78
2022/07/22 03:28:06;;;;;;;375.75;202.52;;;;;;;;;;5001333;28;20563;-75
2022/07/22 03:30:32;;;;;;;360.45;195.70;;;;;;;;;;5004964;28;20275;-75
2022/07/22 03:32:58;;;;;;;391.90;204.98;;;;;;;;;;5004038;28;20570;-75
2022/07/22 03:35:24;;;;;;;371.35;192.80;;;;;;;;;;5002444;28;20229;-77
2022/07/22 03:37:50;;;;;;;406.92;210.38;;;;;;;;;;5000034;28;20217;-74
2022/07/22 03:40:16;;;;;;;375.80;192.20;;;;;;;;;;5003248;28;20217;-75
2022/07/22 03:42:42;;;;;;;409.50;213.98;;;;;;;;;;5001397;28;20243;-78
2022/07/22 03:45:09;;;;;;;384.50;202.25;;;;;;;;;;5001987;28;20178;-77
2022/07/22 03:47:35;;;;;;;386.33;202.20;;;;;;;;;;5008276;28;20889;-75
2022/07/22 03:50:01;;;;;;;392.35;207.00;;;;;;;;;;5002665;28;20231;-74
2022/07/22 03:52:27;;;;;;;364.80;195.52;;;;;;;;;;4998799;28;20229;-75
2022/07/22 03:54:53;;;;;;;402.55;208.20;;;;;;;;;;5003292;28;20682;-74
2022/07/22 03:57:20;;;;;;;359.63;183.40;;;;;;;;;;5005214;28;20181;-75
2022/07/22 03:59:46;;;;;;;346.35;180.43;;;;;;;;;;5004554;28;20220;-75
2022/07/22 04:02:12;;;;;;;403.85;205.13;;;;;;;;;;5003001;28;20229;-74
2022/07/22 04:04:38;;;;;;;351.42;182.13;;;;;;;;;;5006697;28;20249;-75
2022/07/22 04:07:04;;;;;;;380.75;195.38;;;;;;;;;;5002126;28;20251;-76
2022/07/22 04:09:29;;;;;;;357.80;187.65;;;;;;;;;;5000365;28;20200;-78
2022/07/22 04:11:55;;;;;;;430.13;221.05;;;;;;;;;;5002655;28;20204;-75
2022/07/22 04:14:21;;;;;;;387.13;198.82;;;;;;;;;;5003294;28;20709;-77
2022/07/22 04:16:47;;;;;;;381.50;199.05;;;;;;;;;;5001187;28;20220;-76
2022/07/22 04:19:13;;;;;;;349.98;182.60;;;;;;;;;;5003415;28;20670;-77
2022/07/22 04:21:39;;;;;;;393.95;201.35;;;;;;;;;;5004523;28;20192;-76
2022/07/22 04:24:06;;;;;;;373.95;194.10;;;;;;;;;;5003118;28;20185;-75
2022/07/22 04:26:32;;;;;;;391.25;202.23;;;;;;;;;;4999859;28;20224;-78
2022/07/22 04:28:58;;;;;;;397.60;206.85;;;;;;;;;;5001424;28;20220;-75
2022/07/22 04:31:24;;;;;;;360.73;186.48;;;;;;;;;;5006095;28;20225;-75
2022/07/22 04:33:50;;;;;;;380.67;196.25;;;;;;;;;;5005503;28;20213;-75
2022/07/22 04:36:16;;;;;;;342.20;175.57;;;;;;;;;;5007270;28;20240;-75
2022/07/22 04:38:43;;;;;;;368.33;191.32;;;;;;;;;;5006556;28;20232;-77
2022/07/22 04:41:08;;;;;;;381.50;195.50;;;;;;;;;;5004459;28;20548;-76
2022/07/22 04:43:34;;;;;;;344.02;179.32;;;;;;;;;;5008328;28;20216;-77
2022/07/22 04:46:00;;;;;;;368.52;194.18;;;;;;;;;;5006372;28;20231;-78
2022/07/22 04:48:26;;;;;;;373.00;201.07;;;;;;;;;;5005329;28;20189;-75
2022/07/22 04:50:52;;;;;;;401.92;210.40;;;;;;;;;;5021961;28;20205;-76
2022/07/22 04:53:18;;;;;;;360.88;184.90;;;;;;;;;;5005876;28;20270;-76
2022/07/22 04:55:44;;;;;;;429.25;222.35;;;;;;;;;;5007324;28;20217;-77
2022/07/22 04:58:10;;;;;;;401.92;211.50;;;;;;;;;;5003136;28;20733;-75
2022/07/22 05:00:36;;;;;;;388.67;203.13;;;;;;;;;;4998656;28;20532;-75
2022/07/22 05:03:02;;;;;;;394.10;211.27;;;;;;;;;;5005953;28;20190;-75
2022/07/22 05:05:28;;;;;;;366.88;191.43;;;;;;;;;;5008616;28;20224;-75
2022/07/22 05:07:54;;;;;;;371.27;197.95;;;;;;;;;;5006172;28;20293;-74
2022/07/22 05:10:20;;;;;;;357.85;187.07;;;;;;;;;;5013185;28;20266;-79
2022/07/22 05:12:46;;;;;;;407.75;211.90;;;;;;;;;;5006690;28;20630;-74
2022/07/22 05:15:12;;;;;;;364.88;190.13;;;;;;;;;;5004675;28;20202;-73
2022/07/22 05:17:38;;;;;;;421.75;225.93;;;;;;;;;;5001339;28;20299;-75
2022/07/22 05:20:04;;;;;;;401.15;223.32;;;;;;;;;;5007905;28;20771;-75
2022/07/22 05:22:30;;;;;;;343.80;195.32;;;;;;;;;;5009208;28;20220;-74
2022/07/22 05:24:56;;;;;;;393.13;225.52;;;;;;;;;;5004122;28;20220;-75
2022/07/22 05:27:22;;;;;;;383.55;202.70;;;;;;;;;;5005834;28;20204;-74
2022/07/22 05:29:48;;;;;;;381.10;211.05;;;;;;;;;;5003292;28;20180;-75
2022/07/22 05:32:14;;;;;;;360.42;191.02;;;;;;;;;;5007573;28;20236;-74
2022/07/22 05:34:40;;;;;;;442.05;233.85;;;;;;;;;;5006911;28;20275;-76
2022/07/22 05:37:06;;;;;;;348.52;190.00;;;;;;;;;;5001047;28;20217;-75
2022/07/22 05:39:32;;;;;;;390.52;213.05;;;;;;;;;;5003847;28;20601;-76
2022/07/22 05:41:58;;;;;;;370.08;211.80;;;;;;;;;;5006448;28;20203;-73
2022/07/22 05:44:24;;;;;;;441.08;241.05;;;;;;;;;;5009035;28;20213;-72
2022/07/22 05:46:50;;;;;;;391.30;221.95;;;;;;;;;;5004161;28;20220;-74
2022/07/22 05:49:16;;;;;;;372.98;205.30;;;;;;;;;;5007250;28;20216;-74
2022/07/22 05:51:42;;;;;;;351.23;190.32;;;;;;;;;;5003619;28;20230;-72
2022/07/22 05:54:08;;;;;;;365.40;200.27;;;;;;;;;;4988108;28;20884;-73
2022/07/22 05:56:34;;;;;;;367.90;197.27;;;;;;;;;;4999394;28;20794;-73
2022/07/22 05:59:00;;;;;;;402.13;222.63;;;;;;;;;;5001387;28;20287;-73
2022/07/22 06:01:26;;;;;;;378.10;214.75;;;;;;;;;;5001699;28;20229;-73
2022/07/22 06:03:52;;;;;;;378.02;205.18;;;;;;;;;;5004306;28;20606;-72
2022/07/22 06:06:18;;;;;;;364.45;202.07;;;;;;;;;;5002847;28;20184;-73
2022/07/22 06:08:44;;;;;;;387.75;215.73;;;;;;;;;;5005812;28;20278;-73
2022/07/22 06:11:10;;;;;;;399.33;205.02;;;;;;;;;;5001625;28;20212;-73
2022/07/22 06:13:37;;;;;;;357.30;187.68;;;;;;;;;;5005071;28;20880;-73
2022/07/22 06:16:04;;;;;;;394.60;217.07;;;;;;;;;;5004471;28;20272;-66
2022/07/22 06:18:30;;;;;;;364.02;192.75;;;;;;;;;;4998438;28;20184;-71
2022/07/22 06:20:55;;;;;;;411.10;235.95;;;;;;;;;;5000353;28;20200;-66
2022/07/22 06:23:23;;;;;;;371.33;197.32;;;;;;;;;;4998405;28;20586;-68
2022/07/22 06:25:49;;;;;;;577.42;300.90;;;;;;;;;;5007520;28;20236;-63
2022/07/22 06:28:15;;;;;;;430.45;231.07;;;;;;;;;;4987467;28;20229;-63
2022/07/22 06:30:41;;;;;;;379.15;212.75;;;;;;;;;;4997252;28;20209;-63
2022/07/22 06:33:08;;;;;;;350.90;193.50;;;;;;;;;;5000166;28;20586;-64
2022/07/22 06:35:34;;;;;;;415.83;224.95;;;;;;;;;;5004622;28;20303;-63
2022/07/22 06:38:00;;;;;;;403.80;223.35;;;;;;;;;;5000305;28;20702;-64
2022/07/22 06:40:26;;;;;;;419.60;233.75;;;;;;;;;;4999032;28;20291;-64
2022/07/22 06:42:52;;;;;;;404.45;233.32;;;;;;;;;;5009827;28;20224;-68
2022/07/22 06:45:17;;;;;;;368.80;215.32;;;;;;;;;;5000585;28;21108;-67
2022/07/22 06:47:43;;;;;;;428.38;237.65;;;;;;;;;;4994862;28;20228;-66
2022/07/22 06:50:10;;;;;;;349.00;204.38;;;;;;;;;;4994842;28;20220;-66
2022/07/22 06:52:38;;;;;;;363.48;207.35;;;;;;;;;;5011405;28;20221;-66
2022/07/22 06:55:04;;;;;;;376.63;220.55;;;;;;;;;;5006105;28;20224;-66
2022/07/22 06:57:30;;;;;;;394.27;217.63;;;;;;;;;;5011779;28;20188;-65
2022/07/22 06:59:56;;;;;;;383.02;218.63;;;;;;;;;;5002085;28;20185;-66
2022/07/22 07:02:22;;;;;;;408.63;237.40;;;;;;;;;;5004214;28;20225;-67
2022/07/22 07:04:48;;;;;;;388.25;225.07;;;;;;;;;;4998550;28;20820;-64
2022/07/22 07:07:14;;;;;;;449.00;261.00;;;;;;;;;;4991547;28;20232;-65
2022/07/22 07:09:40;;;;;;;367.17;211.75;;;;;;;;;;5002513;28;20531;-64
2022/07/22 07:12:06;;;;;;;353.15;208.90;;;;;;;;;;5006952;28;20193;-64
2022/07/22 07:14:32;;;;;;;435.55;240.80;;;;;;;;;;5006329;28;20217;-63
2022/07/22 07:16:58;;;;;;;382.63;219.02;;;;;;;;;;5002994;28;20221;-63
2022/07/22 07:19:24;;;;;;;343.02;207.43;;;;;;;;;;5011964;28;20223;-64
2022/07/22 07:21:50;;;;;;;399.48;234.65;;;;;;;;;;5004141;28;21375;-59
2022/07/22 07:24:16;;;;;;;435.17;254.13;;;;;;;;;;5008227;28;20180;-60
2022/07/22 07:26:42;;;;;;;409.90;238.75;;;;;;;;;;5001407;28;20229;-59
2022/07/22 07:29:08;;;;;;;390.83;228.32;;;;;;;;;;5006952;28;20216;-60
2022/07/22 07:31:34;;;;;;;451.40;259.20;;;;;;;;;;5002877;28;20248;-60
2022/07/22 07:34:00;;;;;;;383.95;227.65;;;;;;;;;;5004544;28;20236;-60
2022/07/22 07:36:26;;;;;;;355.45;215.80;;;;;;;;;;5009440;28;20173;-59
2022/07/22 07:38:52;;;;;;;369.30;227.73;;;;;;;;;;5005362;28;20575;-59
2022/07/22 07:41:18;;;;;;;365.35;223.07;;;;;;;;;;5007332;28;20213;-60
2022/07/22 07:43:44;;;;;;;353.33;213.40;;;;;;;;;;5004503;28;20219;-59
2022/07/22 07:46:10;;;;;;;497.48;303.70;;;;;;;;;;5002668;28;20223;-60
2022/07/22 07:48:36;;;;;;;445.27;270.20;;;;;;;;;;4997523;28;20200;-60
2022/07/22 07:51:02;;;;;;;424.67;260.85;;;;;;;;;;4996460;28;20210;-61
2022/07/22 07:53:28;;;;;;;369.38;235.05;;;;;;;;;;4998766;28;20227;-59
2022/07/22 07:55:53;;;;;;;380.73;233.57;;;;;;;;;;5002863;28;20221;-60
2022/07/22 07:58:20;;;;;;;449.05;268.00;;;;;;;;;;4999195;28;20224;-60
2022/07/22 08:00:46;;;;;;;385.40;237.35;;;;;;;;;;4994740;28;20236;-60
2022/07/22 08:03:12;;;;;;;394.95;244.15;;;;;;;;;;4990165;28;20188;-60
2022/07/22 08:05:39;;;;;;;444.10;262.67;;;;;;;;;;5002754;28;20233;-60
2022/07/22 08:08:05;;;;;;;340.58;209.25;;;;;;;;;;4989521;28;20236;-68
2022/07/22 08:10:31;;;;;;;388.60;224.15;;;;;;;;;;4997515;28;20235;-66
2022/07/22 08:12:58;;;;;;;423.38;244.80;;;;;;;;;;5009436;28;20220;-66
2022/07/22 08:15:24;;;;;;;371.95;218.52;;;;;;;;;;5006982;28;20204;-65
2022/07/22 08:17:50;;;;;;;372.23;226.40;;;;;;;;;;5010887;28;20295;-66
2022/07/22 08:20:16;;;;;;;367.33;214.25;;;;;;;;;;5008224;28;20667;-66
2022/07/22 08:22:42;;;;;;;354.08;213.23;;;;;;;;;;5005447;28;20225;-66
2022/07/22 08:25:08;;;;;;;348.17;212.00;;;;;;;;;;5009561;28;20221;-65
2022/07/22 08:27:34;;;;;;;346.73;206.73;;;;;;;;;;5015929;28;20193;-66
2022/07/22 08:30:04;;;;;;;463.63;269.60;;;;;;;;;;5010348;28;20191;-66
2022/07/22 08:32:29;;;;;;;370.75;220.73;;;;;;;;;;5009878;28;20225;-66
2022/07/22 08:34:55;;;;;;;361.25;222.77;;;;;;;;;;5011465;28;20213;-66
2022/07/22 08:37:21;;;;;;;359.25;214.85;;;;;;;;;;5009898;28;20235;-66
2022/07/22 08:39:47;;;;;;;386.33;231.25;;;;;;;;;;5009569;28;20212;-66
2022/07/22 08:42:13;;;;;;;366.10;219.48;;;;;;;;;;5014420;28;20556;-66
2022/07/22 08:44:40;;;;;;;368.38;221.70;;;;;;;;;;5011908;28;20752;-66
2022/07/22 08:47:06;;;;;;;364.23;229.43;;;;;;;;;;5009633;28;20212;-66
2022/07/22 08:49:32;;;;;;;617.67;347.70;;;;;;;;;;5002963;28;20790;-65
2022/07/22 08:51:57;;;;;;;496.63;300.70;;;;;;;;;;4985998;28;20229;-66
2022/07/22 08:54:23;;;;;;;391.20;244.02;;;;;;;;;;5004533;28;20184;-66
2022/07/22 08:56:50;;;;;;;387.25;242.68;;;;;;;;;;5003395;28;20624;-66
2022/07/22 08:59:16;;;;;;;501.63;295.40;;;;;;;;;;5001261;28;20221;-67
2022/07/22 09:02:01;;;;;;;384.88;234.75;;;;;;;;;;4997475;28;20279;-67
2022/07/22 09:04:27;;;;;;;435.75;259.15;;;;;;;;;;4996738;28;20368;-68
2022/07/22 09:06:53;;;;;;;416.38;249.50;;;;;;;;;;5003662;28;20690;-66
2022/07/22 09:09:29;;;;;;;349.40;215.50;;;;;;;;;;5020908;28;20181;-65
2022/07/22 09:12:04;;;;;;;371.08;230.70;;;;;;;;;;5008599;28;20282;-66
2022/07/22 09:14:43;;;;;;;409.30;249.52;;;;;;;;;;4999817;28;20231;-66
2022/07/22 09:17:22;;;;;;;378.77;230.63;;;;;;;;;;4996778;28;20215;-66
2022/07/22 09:19:48;;;;;;;443.73;259.05;;;;;;;;;;4995750;28;20223;-65
2022/07/22 09:22:14;;;;;;;435.90;255.20;;;;;;;;;;4996325;28;20220;-69
2022/07/22 09:24:39;;;;;;;360.60;223.70;;;;;;;;;;5005389;28;20207;-69
2022/07/22 09:27:06;;;;;;;352.92;216.65;;;;;;;;;;5005060;28;20181;-68
2022/07/22 09:29:32;;;;;;;366.13;226.85;;;;;;;;;;5009619;28;20287;-69
2022/07/22 09:31:58;;;;;;;402.63;244.68;;;;;;;;;;5009916;28;20727;-69
2022/07/22 09:34:31;;;;;;;356.23;216.65;;;;;;;;;;5009816;28;20220;-68
2022/07/22 09:36:59;;;;;;;356.88;223.55;;;;;;;;;;5004282;28;20217;-69
2022/07/22 09:39:31;;;;;;;383.10;232.82;;;;;;;;;;5010534;28;20169;-67
2022/07/22 09:41:59;;;;;;;397.23;240.68;;;;;;;;;;5009096;28;20200;-68
2022/07/22 09:44:24;;;;;;;371.13;223.70;;;;;;;;;;5007400;28;20679;-68
2022/07/22 09:46:50;;;;;;;394.73;244.77;;;;;;;;;;5003046;28;20228;-68
2022/07/22 09:49:33;;;;;;;350.02;215.55;;;;;;;;;;5012001;28;20216;-69
2022/07/22 09:52:00;;;;;;;376.08;228.13;;;;;;;;;;5004874;28;20224;-69
2022/07/22 09:54:27;;;;;;;416.52;248.48;;;;;;;;;;5001957;28;20638;-69
2022/07/22 09:56:52;;;;;;;368.40;228.73;;;;;;;;;;5009456;28;20539;-68
2022/07/22 09:59:19;;;;;;;360.10;229.32;;;;;;;;;;5011215;28;20222;-68
2022/07/22 10:01:45;;;;;;;353.45;230.15;;;;;;;;;;5010098;28;20224;-68
2022/07/22 10:04:12;;;;;;;364.80;231.07;;;;;;;;;;5009884;28;20217;-69
2022/07/22 10:06:38;;;;;;;384.88;249.95;;;;;;;;;;5006205;28;20177;-69
2022/07/22 10:09:05;;;;;;;364.92;242.40;;;;;;;;;;5009567;28;20169;-69
2022/07/22 10:11:32;;;;;;;345.60;231.68;;;;;;;;;;5008034;28;20290;-68
2022/07/22 10:13:58;;;;;;;402.33;260.20;;;;;;;;;;5009379;28;20219;-69
2022/07/22 10:16:24;;;;;;;370.58;244.75;;;;;;;;;;5009246;28;20587;-68
2022/07/22 10:18:50;;;;;;;389.98;259.42;;;;;;;;;;5010030;28;20267;-69
2022/07/22 10:21:17;;;;;;;347.25;236.75;;;;;;;;;;5009297;28;20260;-68
2022/07/22 10:24:02;;;;;;;437.20;281.10;;;;;;;;;;5012370;28;20219;-68
2022/07/22 10:27:01;;;;;;;353.33;243.15;;;;;;;;;;5008524;28;20228;-69
2022/07/22 10:29:30;;;;;;;410.95;268.27;;;;;;;;;;4989546;28;20221;-68
2022/07/22 10:32:14;;;;;;;376.83;252.80;;;;;;;;;;5007427;28;20224;-69
2022/07/22 10:34:40;;;;;;;633.58;382.83;;;;;;;;;;5003642;28;20757;-69
2022/07/22 10:37:27;;;;;;;449.63;293.27;;;;;;;;;;5001177;28;20228;-61
2022/07/22 10:40:12;;;;;;;446.50;293.75;;;;;;;;;;4998659;28;20212;-61
2022/07/22 10:43:00;;;;;;;393.25;272.67;;;;;;;;;;5002080;28;20651;-61
2022/07/22 10:45:31;;;;;;;418.50;285.23;;;;;;;;;;5004763;28;20181;-61
2022/07/22 10:48:01;;;;;;;545.13;359.13;;;;;;;;;;4997193;28;20182;-60
2022/07/22 10:50:37;;;;;;;420.35;291.05;;;;;;;;;;5000247;28;20232;-60
2022/07/22 10:53:04;;;;;;;411.38;284.63;;;;;;;;;;5003095;28;20209;-60
2022/07/22 10:55:30;;;;;;;413.25;286.67;;;;;;;;;;5003292;28;20224;-58
2022/07/22 10:57:56;;;;;;;458.05;310.58;;;;;;;;;;5000075;28;20225;-59
2022/07/22 11:00:22;;;;;;;386.90;270.25;;;;;;;;;;5002947;28;20177;-60
2022/07/22 11:02:48;;;;;;;377.40;267.50;;;;;;;;;;5010809;28;20217;-60
2022/07/22 11:05:14;;;;;;;416.08;283.90;;;;;;;;;;5004042;28;20213;-60
2022/07/22 11:07:44;;;;;;;383.98;259.88;;;;;;;;;;5010852;28;20662;-59
2022/07/22 11:10:11;;;;;;;397.83;271.70;;;;;;;;;;5007130;28;20554;-60
2022/07/22 11:12:37;;;;;;;400.90;277.20;;;;;;;;;;5007983;28;20193;-60
2022/07/22 11:15:06;;;;;;;451.25;300.40;;;;;;;;;;4999064;28;20192;-58
2022/07/22 11:17:34;;;;;;;425.98;286.95;;;;;;;;;;4988265;28;20221;-60
2022/07/22 11:20:01;;;;;;;441.63;292.88;;;;;;;;;;4996208;28;22258;-59
2022/07/22 11:22:27;;;;;;;422.15;282.60;;;;;;;;;;4997784;28;20231;-60
2022/07/22 11:24:53;;;;;;;409.65;282.38;;;;;;;;;;5008524;28;20550;-60
2022/07/22 11:27:23;;;;;;;401.52;273.33;;;;;;;;;;5010798;28;20181;-60
2022/07/22 11:29:50;;;;;;;428.60;294.65;;;;;;;;;;5003417;28;20222;-59
2022/07/22 11:32:16;;;;;;;430.05;286.70;;;;;;;;;;5008565;28;20227;-60
2022/07/22 11:34:47;;;;;;;415.35;288.15;;;;;;;;;;5007746;28;20229;-60
2022/07/22 11:37:23;;;;;;;424.92;289.60;;;;;;;;;;5009869;28;20220;-60
2022/07/22 11:39:49;;;;;;;422.58;294.45;;;;;;;;;;5007304;28;20266;-60
2022/07/22 11:42:15;;;;;;;419.45;286.13;;;;;;;;;;5007324;28;20201;-60
2022/07/22 11:44:41;;;;;;;417.23;279.25;;;;;;;;;;5010769;28;20215;-60
2022/07/22 11:47:08;;;;;;;408.80;274.42;;;;;;;;;;5014828;28;20224;-60
2022/07/22 11:49:35;;;;;;;422.17;288.60;;;;;;;;;;5013081;28;20216;-60
2022/07/22 11:52:01;;;;;;;410.80;275.08;;;;;;;;;;5017062;28;20558;-60
2022/07/22 11:54:27;;;;;;;504.02;315.27;;;;;;;;;;5007030;28;20189;-60
2022/07/22 11:56:54;;;;;;;420.77;284.90;;;;;;;;;;4999575;28;20670;-60
2022/07/22 11:59:20;;;;;;;427.88;288.30;;;;;;;;;;4997489;28;20229;-60
2022/07/22 12:01:47;;;;;;;407.40;290.45;;;;;;;;;;5001314;28;20344;-60
2022/07/22 12:04:15;;;;;;;438.55;308.92;;;;;;;;;;5010862;28;20775;-59
2022/07/22 12:06:43;;;;;;;447.38;303.00;;;;;;;;;;5011238;28;20188;-60
2022/07/22 12:09:10;;;;;;;414.65;284.30;;;;;;;;;;5008093;28;20252;-60
2022/07/22 12:11:38;;;;;;;381.58;266.55;;;;;;;;;;5011991;28;20220;-60
2022/07/22 12:14:11;;;;;;;467.83;311.63;;;;;;;;;;5005418;28;20400;-61
2022/07/22 12:16:38;;;;;;;471.25;311.83;;;;;;;;;;5003215;28;20213;-59
2022/07/22 12:19:05;;;;;;;400.20;274.20;;;;;;;;;;4998460;28;21154;-60
2022/07/22 12:21:35;;;;;;;406.17;281.13;;;;;;;;;;4998710;28;20574;-61
2022/07/22 12:24:03;;;;;;;426.58;280.52;;;;;;;;;;5007703;28;21134;-60
2022/07/22 12:26:48;;;;;;;415.90;286.02;;;;;;;;;;5006497;28;20326;-64
2022/07/22 12:29:14;;;;;;;381.42;264.17;;;;;;;;;;5005230;28;20233;-67
2022/07/22 12:31:44;;;;;;;387.35;257.13;;;;;;;;;;5007170;28;20321;-67
2022/07/22 12:34:10;;;;;;;388.73;266.95;;;;;;;;;;5010392;28;20267;-67
2022/07/22 12:36:36;;;;;;;392.77;271.02;;;;;;;;;;5005916;28;20571;-67
2022/07/22 12:39:18;;;;;;;447.55;295.40;;;;;;;;;;4996502;28;20192;-67
2022/07/22 12:41:52;;;;;;;442.80;286.55;;;;;;;;;;4990654;28;20304;-67
2022/07/22 12:44:18;;;;;;;423.25;276.98;;;;;;;;;;4997451;28;20547;-67
2022/07/22 12:46:45;;;;;;;361.90;256.02;;;;;;;;;;5013421;28;20225;-67
2022/07/22 12:49:12;;;;;;;423.58;280.67;;;;;;;;;;5011741;28;20216;-67
2022/07/22 12:51:37;;;;;;;350.00;254.68;;;;;;;;;;5010957;28;20193;-67
2022/07/22 12:54:03;;;;;;;394.10;262.45;;;;;;;;;;5013679;28;20204;-67
2022/07/22 12:56:30;;;;;;;407.30;274.42;;;;;;;;;;5006124;28;20228;-67
2022/07/22 12:58:56;;;;;;;473.15;311.80;;;;;;;;;;5004482;28;20220;-67
2022/07/22 13:01:22;;;;;;;451.00;291.73;;;;;;;;;;5009248;28;20221;-66
2022/07/22 13:03:48;;;;;;;437.52;294.67;;;;;;;;;;5008083;28;20214;-67
2022/07/22 13:06:15;;;;;;;438.08;288.77;;;;;;;;;;5006044;28;20554;-68
2022/07/22 13:08:41;;;;;;;383.60;262.35;;;;;;;;;;5015500;28;20665;-67
2022/07/22 13:11:07;;;;;;;391.42;269.20;;;;;;;;;;5007629;28;20234;-67
2022/07/22 13:13:33;;;;;;;396.50;271.80;;;;;;;;;;5002594;28;20212;-66
2022/07/22 13:15:59;;;;;;;452.80;314.15;;;;;;;;;;4998610;28;20217;-66
2022/07/22 13:18:24;;;;;;;438.45;305.25;;;;;;;;;;4985258;28;20831;-66
2022/07/22 13:20:50;;;;;;;480.92;325.85;;;;;;;;;;4994140;28;20201;-67
2022/07/22 13:23:16;;;;;;;421.98;288.88;;;;;;;;;;5000694;28;20235;-66
2022/07/22 13:25:42;;;;;;;440.48;300.77;;;;;;;;;;5015786;28;20613;-67
2022/07/22 13:28:08;;;;;;;426.88;303.20;;;;;;;;;;5004419;28;20220;-67
2022/07/22 13:30:34;;;;;;;384.67;277.73;;;;;;;;;;5006130;28;20194;-67
2022/07/22 13:33:00;;;;;;;412.05;293.42;;;;;;;;;;5020079;28;20177;-67
2022/07/22 13:35:26;;;;;;;371.20;274.33;;;;;;;;;;5018669;28;20217;-67
2022/07/22 13:37:52;;;;;;;405.88;305.90;;;;;;;;;;5022026;28;20227;-68
2022/07/22 13:40:18;;;;;;;432.95;308.17;;;;;;;;;;5011823;28;20219;-67
2022/07/22 13:42:44;;;;;;;424.02;307.75;;;;;;;;;;5005009;28;20219;-66
2022/07/22 13:45:11;;;;;;;399.75;294.70;;;;;;;;;;5015799;28;20836;-67
2022/07/22 13:47:37;;;;;;;396.10;290.67;;;;;;;;;;4999399;28;20221;-68
2022/07/22 13:50:04;;;;;;;429.90;316.80;;;;;;;;;;5001932;28;20216;-68